createdAt,value
2018-03-04T00:00:57.231Z,39.87
2018-03-04T00:03:29.981Z,37.43
2018-03-04T00:06:02.452Z,41.23
2018-03-04T00:08:35.665Z,40.43
2018-03-04T00:11:08.361Z,39.73
2018-03-04T00:13:40.754Z,42.57
2018-03-04T00:16:14.474Z,43.80
2018-03-04T00:18:47.308Z,42.70
2018-03-04T00:21:20.630Z,40.60
2018-03-04T00:23:53.254Z,44.83
2018-03-04T00:26:26.033Z,42.70
2018-03-04T00:28:58.607Z,37.50
2018-03-04T00:31:31.850Z,31.60
2018-03-04T00:34:04.780Z,40.53
2018-03-04T00:36:38.971Z,40.20
2018-03-04T00:39:11.950Z,47.63
2018-03-04T00:41:44.527Z,40.40
2018-03-04T00:44:16.956Z,41.27
2018-03-04T00:46:49.425Z,45.10
2018-03-04T00:49:22.905Z,50.20
2018-03-04T00:51:55.601Z,41.33
2018-03-04T00:54:28.905Z,35.60
2018-03-04T00:57:02.152Z,34.10
2018-03-04T00:59:35.010Z,41.23
2018-03-04T01:02:07.554Z,42.90
2018-03-04T01:04:40.657Z,52.17
2018-03-04T01:07:13.289Z,40.67
2018-03-04T01:09:45.595Z,45.07
2018-03-04T01:12:18.403Z,42.10
2018-03-04T01:14:50.859Z,46.50
2018-03-04T01:17:23.447Z,46.27
2018-03-04T01:19:56.754Z,49.17
2018-03-04T01:22:30.006Z,41.40
2018-03-04T01:25:02.903Z,48.67
2018-03-04T01:27:36.334Z,43.50
2018-03-04T01:30:08.831Z,41.83
2018-03-04T01:32:41.357Z,42.23
2018-03-04T01:35:13.820Z,34.67
2018-03-04T01:37:47.099Z,40.10
2018-03-04T01:40:19.836Z,42.47
2018-03-04T01:42:52.207Z,35.10
2018-03-04T01:45:24.821Z,36.30
2018-03-04T01:47:57.528Z,42.00
2018-03-04T01:50:30.795Z,45.53
2018-03-04T01:53:03.534Z,42.20
2018-03-04T01:55:36.035Z,47.40
2018-03-04T01:58:08.679Z,50.10
2018-03-04T02:00:41.271Z,48.07
2018-03-04T02:03:13.816Z,40.60
2018-03-04T02:05:46.213Z,42.77
2018-03-04T02:08:18.592Z,42.23
2018-03-04T02:10:51.536Z,46.77
2018-03-04T02:13:24.826Z,50.70
2018-03-04T02:15:57.501Z,45.70
2018-03-04T02:18:30.617Z,41.00
2018-03-04T02:21:03.994Z,48.90
2018-03-04T02:23:36.831Z,52.57
2018-03-04T02:26:09.301Z,47.63
2018-03-04T02:28:42.448Z,50.83
2018-03-04T02:31:15.250Z,42.97
2018-03-04T02:33:47.649Z,44.27
2018-03-04T02:36:20.973Z,43.83
2018-03-04T02:38:53.741Z,49.37
2018-03-04T02:41:26.100Z,45.00
2018-03-04T02:43:59.343Z,44.20
2018-03-04T02:46:31.970Z,42.47
2018-03-04T02:49:04.417Z,41.07
2018-03-04T02:51:36.911Z,41.43
2018-03-04T02:54:10.286Z,41.53
2018-03-04T02:56:43.465Z,47.60
2018-03-04T02:59:16.331Z,50.50
2018-03-04T03:01:49.523Z,43.27
2018-03-04T03:04:22.385Z,40.63
2018-03-04T03:06:54.964Z,46.70
2018-03-04T03:09:27.440Z,42.07
2018-03-04T03:12:00.746Z,39.70
2018-03-04T03:14:33.504Z,46.80
2018-03-04T03:17:06.017Z,42.73
2018-03-04T03:19:38.492Z,39.47
2018-03-04T03:22:11.124Z,41.47
2018-03-04T03:24:44.279Z,44.50
2018-03-04T03:27:16.890Z,45.70
2018-03-04T03:29:49.369Z,50.33
2018-03-04T03:32:22.549Z,43.63
2018-03-04T03:34:55.276Z,43.27
2018-03-04T03:37:28.636Z,44.57
2018-03-04T03:40:01.010Z,40.23
2018-03-04T03:42:33.525Z,44.70
2018-03-04T03:45:05.872Z,39.30
2018-03-04T03:47:38.406Z,47.87
2018-03-04T03:50:10.796Z,45.77
2018-03-04T03:52:43.482Z,39.30
2018-03-04T03:55:16.130Z,46.63
2018-03-04T03:57:48.739Z,36.83
2018-03-04T04:00:21.480Z,44.50
2018-03-04T04:02:53.909Z,46.10
2018-03-04T04:05:26.584Z,49.17
2018-03-04T04:07:59.763Z,43.43
2018-03-04T04:10:33.345Z,44.73
2018-03-04T04:13:06.010Z,40.50
2018-03-04T04:15:38.799Z,45.03
2018-03-04T04:18:12.095Z,37.97
2018-03-04T04:20:45.338Z,44.70
2018-03-04T04:23:18.530Z,56.03
2018-03-04T04:25:52.006Z,43.30
2018-03-04T04:28:24.599Z,42.80
2018-03-04T04:30:57.184Z,46.30
2018-03-04T04:33:30.580Z,42.27
2018-03-04T04:36:03.121Z,41.47
2018-03-04T04:38:35.514Z,40.07
2018-03-04T04:41:08.115Z,43.73
2018-03-04T04:43:41.537Z,44.80
2018-03-04T04:46:14.107Z,51.10
2018-03-04T04:48:48.235Z,43.40
2018-03-04T04:51:20.962Z,45.23
2018-03-04T04:53:53.512Z,56.60
2018-03-04T04:56:26.020Z,48.20
2018-03-04T04:58:59.317Z,60.90
2018-03-04T05:01:31.829Z,40.17
2018-03-04T05:04:04.407Z,47.00
2018-03-04T05:06:36.983Z,54.93
2018-03-04T05:09:10.335Z,53.63
2018-03-04T05:11:43.184Z,42.97
2018-03-04T05:14:16.383Z,50.10
2018-03-04T05:16:49.360Z,42.37
2018-03-04T05:19:23.389Z,40.00
2018-03-04T05:21:56.533Z,39.10
2018-03-04T05:24:30.015Z,38.57
2018-03-04T05:27:03.404Z,39.17
2018-03-04T05:29:36.123Z,37.60
2018-03-04T05:32:08.812Z,33.27
2018-03-04T05:34:42.721Z,40.87
2018-03-04T05:37:15.601Z,40.17
2018-03-04T05:39:48.976Z,39.10
2018-03-04T05:42:21.639Z,36.17
2018-03-04T05:44:54.407Z,40.60
2018-03-04T05:47:26.888Z,38.30
2018-03-04T05:50:00.122Z,37.70
2018-03-04T05:52:33.598Z,37.70
2018-03-04T05:55:06.486Z,36.03
2018-03-04T05:57:39.780Z,40.50
2018-03-04T06:00:12.857Z,32.50
2018-03-04T06:02:45.673Z,43.23
2018-03-04T06:05:18.046Z,36.97
2018-03-04T06:07:50.494Z,35.70
2018-03-04T06:10:23.896Z,39.30
2018-03-04T06:12:56.607Z,42.43
2018-03-04T06:15:29.098Z,37.90
2018-03-04T06:18:01.741Z,39.63
2018-03-04T06:20:34.236Z,35.13
2018-03-04T06:23:06.731Z,36.70
2018-03-04T06:25:40.252Z,38.47
2018-03-04T06:28:12.816Z,35.13
2018-03-04T06:30:46.024Z,39.03
2018-03-04T06:33:19.546Z,34.40
2018-03-04T06:35:52.253Z,30.43
2018-03-04T06:38:25.655Z,35.37
2018-03-04T06:40:58.999Z,40.17
2018-03-04T06:43:32.583Z,35.97
2018-03-04T06:46:05.379Z,34.90
2018-03-04T06:48:38.127Z,34.00
2018-03-04T06:51:11.344Z,36.30
2018-03-04T06:53:44.202Z,34.87
2018-03-04T06:56:17.317Z,39.10
2018-03-04T06:58:50.859Z,37.13
2018-03-04T07:01:23.651Z,34.77
2018-03-04T07:03:56.258Z,40.20
2018-03-04T07:06:28.638Z,40.90
2018-03-04T07:09:01.253Z,39.33
2018-03-04T07:11:33.636Z,33.30
2018-03-04T07:14:06.241Z,39.57
2018-03-04T07:16:39.522Z,39.60
2018-03-04T07:19:12.018Z,37.93
2018-03-04T07:21:44.381Z,35.43
2018-03-04T07:24:16.983Z,33.53
2018-03-04T07:26:50.321Z,35.93
2018-03-04T07:29:23.003Z,39.40
2018-03-04T07:31:55.518Z,39.57
2018-03-04T07:34:27.995Z,36.67
2018-03-04T07:37:00.299Z,37.53
2018-03-04T07:39:33.463Z,40.83
2018-03-04T07:42:07.006Z,38.33
2018-03-04T07:44:39.879Z,37.53
2018-03-04T07:47:12.476Z,35.20
2018-03-04T07:49:45.026Z,37.40
2018-03-04T07:52:17.323Z,36.10
2018-03-04T07:54:50.550Z,37.30
2018-03-04T07:57:23.262Z,33.87
2018-03-04T07:59:55.704Z,36.20
2018-03-04T08:02:28.190Z,34.83
2018-03-04T08:05:00.673Z,30.97
2018-03-04T08:07:32.982Z,34.07
2018-03-04T08:10:05.505Z,34.80
2018-03-04T08:12:37.985Z,34.60
2018-03-04T08:15:11.339Z,36.63
2018-03-04T08:17:44.563Z,33.73
2018-03-04T08:20:17.388Z,35.27
2018-03-04T08:22:49.794Z,31.47
2018-03-04T08:25:30.242Z,37.90
2018-03-04T08:28:22.486Z,36.53
2018-03-04T08:30:55.480Z,38.80
2018-03-04T08:33:27.994Z,33.43
2018-03-04T08:36:01.702Z,39.50
2018-03-04T08:38:35.249Z,38.53
2018-03-04T08:41:08.032Z,37.50
2018-03-04T08:43:40.531Z,36.73
2018-03-04T08:46:13.601Z,36.97
2018-03-04T08:48:46.580Z,35.60
2018-03-04T08:51:19.016Z,36.20
2018-03-04T08:53:51.868Z,32.13
2018-03-04T08:56:25.292Z,34.53
2018-03-04T08:58:58.457Z,37.70
2018-03-04T09:01:32.230Z,37.57
2018-03-04T09:04:04.951Z,34.97
2018-03-04T09:06:39.087Z,37.40
2018-03-04T09:09:11.813Z,35.83
2018-03-04T09:11:44.281Z,36.47
2018-03-04T09:14:16.921Z,41.03
2018-03-04T09:16:50.409Z,38.07
2018-03-04T09:19:23.068Z,39.07
2018-03-04T09:21:56.315Z,37.67
2018-03-04T09:24:29.028Z,35.30
2018-03-04T09:27:03.237Z,40.70
2018-03-04T09:29:36.016Z,36.87
2018-03-04T09:32:09.165Z,39.53
2018-03-04T09:34:42.694Z,37.03
2018-03-04T09:37:15.407Z,36.37
2018-03-04T09:39:54.786Z,37.37
2018-03-04T09:42:28.175Z,37.17
2018-03-04T09:45:01.103Z,37.57
2018-03-04T09:47:33.642Z,33.77
2018-03-04T09:50:06.157Z,38.37
2018-03-04T09:52:38.666Z,35.93
2018-03-04T09:55:11.972Z,33.17
2018-03-04T09:57:44.808Z,33.80
2018-03-04T10:00:17.236Z,37.77
2018-03-04T10:02:50.444Z,37.20
2018-03-04T10:05:23.263Z,37.07
2018-03-04T10:07:55.931Z,35.00
2018-03-04T10:10:28.428Z,36.87
2018-03-04T10:13:01.624Z,38.67
2018-03-04T10:15:34.948Z,42.63
2018-03-04T10:18:07.672Z,39.27
2018-03-04T10:20:40.162Z,41.20
2018-03-04T10:23:19.559Z,40.20
2018-03-04T10:25:52.163Z,39.90
2018-03-04T10:28:24.688Z,40.03
2018-03-04T10:30:58.017Z,38.83
2018-03-04T10:33:30.810Z,36.77
2018-03-04T10:36:04.096Z,34.97
2018-03-04T10:38:36.579Z,34.30
2018-03-04T10:41:08.951Z,33.47
2018-03-04T10:43:41.384Z,31.00
2018-03-04T10:46:14.529Z,29.27
2018-03-04T10:48:47.136Z,28.77
2018-03-04T10:51:20.256Z,25.33
2018-03-04T10:53:59.978Z,22.93
2018-03-04T10:56:32.461Z,24.50
2018-03-04T10:59:05.002Z,22.27
2018-03-04T11:01:40.576Z,18.60
2018-03-04T11:04:13.483Z,21.57
2018-03-04T11:06:45.998Z,18.07
2018-03-04T11:09:21.515Z,13.90
2018-03-04T11:11:53.894Z,7.40
2018-03-04T11:14:26.275Z,6.63
2018-03-04T11:16:58.767Z,5.23
2018-03-04T11:19:31.303Z,4.87
2018-03-04T11:22:04.704Z,12.37
2018-03-04T11:24:37.126Z,15.13
2018-03-04T11:27:09.621Z,21.73
2018-03-04T11:29:42.052Z,23.10
2018-03-04T11:32:14.555Z,25.80
2018-03-04T11:34:47.018Z,30.40
2018-03-04T11:37:19.619Z,34.23
2018-03-04T11:39:52.746Z,25.90
2018-03-04T11:42:26.068Z,30.37
2018-03-04T11:44:59.529Z,29.10
2018-03-04T11:47:32.158Z,30.47
2018-03-04T11:50:04.496Z,27.97
2018-03-04T11:52:37.763Z,26.07
2018-03-04T11:55:10.336Z,24.47
2018-03-04T11:57:42.833Z,29.73
2018-03-04T12:00:15.432Z,26.73
2018-03-04T12:02:47.933Z,24.73
2018-03-04T12:05:20.373Z,17.53
2018-03-04T12:07:53.538Z,21.20
2018-03-04T12:10:26.341Z,15.77
2018-03-04T12:12:58.875Z,16.53
2018-03-04T12:15:31.423Z,16.20
2018-03-04T12:18:06.696Z,18.47
2018-03-04T12:20:40.263Z,17.90
2018-03-04T12:23:13.684Z,15.83
2018-03-04T12:25:46.521Z,13.80
2018-03-04T12:28:18.949Z,15.30
2018-03-04T12:30:51.533Z,14.13
2018-03-04T12:33:25.722Z,16.60
2018-03-04T12:35:59.297Z,20.17
2018-03-04T12:38:31.807Z,16.77
2018-03-04T12:41:05.147Z,14.10
2018-03-04T12:43:37.632Z,14.70
2018-03-04T12:46:10.327Z,19.07
2018-03-04T12:48:43.448Z,18.20
2018-03-04T12:51:17.082Z,20.30
2018-03-04T12:53:49.655Z,17.23
2018-03-04T12:56:22.062Z,19.20
2018-03-04T12:58:54.705Z,19.37
2018-03-04T13:01:27.191Z,17.47
2018-03-04T13:04:00.536Z,21.80
2018-03-04T13:06:33.048Z,18.03
2018-03-04T13:09:05.439Z,20.87
2018-03-04T13:11:38.115Z,22.13
2018-03-04T13:14:10.553Z,22.90
2018-03-04T13:16:43.840Z,17.97
2018-03-04T13:19:17.292Z,16.77
2018-03-04T13:21:50.500Z,11.23
2018-03-04T13:24:23.183Z,11.57
2018-03-04T13:26:55.683Z,12.40
2018-03-04T13:29:28.212Z,8.57
2018-03-04T13:32:00.684Z,8.90
2018-03-04T13:34:33.243Z,9.50
2018-03-04T13:37:06.433Z,9.03
2018-03-04T13:39:39.208Z,7.33
2018-03-04T13:42:14.279Z,7.00
2018-03-04T13:44:47.877Z,7.33
2018-03-04T13:47:21.286Z,8.70
2018-03-04T13:49:54.295Z,9.77
2018-03-04T13:52:26.957Z,10.80
2018-03-04T13:55:00.282Z,11.30
2018-03-04T13:57:33.683Z,10.80
2018-03-04T14:00:06.959Z,13.60
2018-03-04T14:02:39.651Z,11.87
2018-03-04T14:05:12.910Z,11.03
2018-03-04T14:07:45.544Z,11.20
2018-03-04T14:10:18.729Z,10.27
2018-03-04T14:12:51.307Z,9.13
2018-03-04T14:15:25.284Z,9.30
2018-03-04T14:17:59.763Z,11.90
2018-03-04T14:20:32.651Z,13.70
2018-03-04T14:23:05.251Z,11.40
2018-03-04T14:25:37.772Z,12.27
2018-03-04T14:28:11.900Z,11.93
2018-03-04T14:30:44.573Z,11.60
2018-03-04T14:33:17.018Z,11.13
2018-03-04T14:35:50.440Z,13.50
2018-03-04T14:38:23.762Z,12.10
2018-03-04T14:40:56.277Z,11.33
2018-03-04T14:43:28.742Z,13.43
2018-03-04T14:46:02.216Z,12.37
2018-03-04T14:48:34.632Z,14.70
2018-03-04T14:51:07.054Z,15.37
2018-03-04T14:53:40.387Z,15.53
2018-03-04T14:56:13.125Z,13.87
2018-03-04T14:58:45.583Z,14.23
2018-03-04T15:01:17.967Z,13.67
2018-03-04T15:03:51.403Z,13.17
2018-03-04T15:06:23.987Z,13.37
2018-03-04T15:08:56.536Z,11.10
2018-03-04T15:11:29.099Z,12.80
2018-03-04T15:14:02.494Z,13.30
2018-03-04T15:16:36.226Z,11.23
2018-03-04T15:19:08.687Z,14.07
2018-03-04T15:21:41.063Z,13.60
2018-03-04T15:24:13.540Z,11.70
2018-03-04T15:26:46.076Z,13.93
2018-03-04T15:29:19.529Z,12.40
2018-03-04T15:31:52.650Z,13.27
2018-03-04T15:34:25.342Z,13.87
2018-03-04T15:36:58.753Z,13.13
2018-03-04T15:39:32.895Z,13.33
2018-03-04T15:42:05.533Z,14.07
2018-03-04T15:44:38.155Z,13.83
2018-03-04T15:47:10.628Z,12.70
2018-03-04T15:49:43.241Z,14.00
2018-03-04T15:52:17.482Z,14.87
2018-03-04T15:54:50.565Z,13.37
2018-03-04T15:57:23.032Z,11.13
2018-03-04T15:59:55.610Z,13.70
2018-03-04T16:02:28.144Z,12.60
2018-03-04T16:05:00.612Z,11.20
2018-03-04T16:07:33.078Z,13.57
2018-03-04T16:10:05.561Z,13.03
2018-03-04T16:12:38.834Z,13.63
2018-03-04T16:15:11.526Z,14.67
2018-03-04T16:17:43.989Z,12.90
2018-03-04T16:20:17.231Z,13.43
2018-03-04T16:22:51.188Z,14.30
2018-03-04T16:25:24.532Z,13.60
2018-03-04T16:27:58.538Z,14.03
2018-03-04T16:30:31.754Z,15.43
2018-03-04T16:33:05.905Z,13.43
2018-03-04T16:35:40.414Z,14.30
2018-03-04T16:38:13.992Z,13.10
2018-03-04T16:40:48.187Z,14.10
2018-03-04T16:43:22.040Z,13.80
2018-03-04T16:45:55.291Z,14.00
2018-03-04T16:48:28.815Z,13.23
2018-03-04T16:51:02.059Z,15.80
2018-03-04T16:53:35.398Z,15.20
2018-03-04T16:56:08.678Z,15.67
2018-03-04T16:58:42.256Z,17.30
2018-03-04T17:01:15.705Z,17.10
2018-03-04T17:03:49.321Z,16.60
2018-03-04T17:06:23.150Z,18.40
2018-03-04T17:08:56.966Z,18.50
2018-03-04T17:11:30.552Z,18.47
2018-03-04T17:14:04.240Z,17.10
2018-03-04T17:16:37.756Z,17.60
2018-03-04T17:19:11.518Z,17.90
2018-03-04T17:21:45.345Z,19.43
2018-03-04T17:24:18.880Z,19.50
2018-03-04T17:26:54.224Z,18.17
2018-03-04T17:29:28.208Z,21.30
2018-03-04T17:32:01.911Z,19.40
2018-03-04T17:34:34.951Z,18.63
2018-03-04T17:37:09.944Z,17.23
2018-03-04T17:39:43.570Z,20.37
2018-03-04T17:42:18.152Z,15.60
2018-03-04T17:44:52.502Z,20.90
2018-03-04T17:47:27.685Z,21.60
2018-03-04T17:50:02.261Z,21.50
2018-03-04T17:52:37.234Z,19.63
2018-03-04T17:55:11.544Z,19.53
2018-03-04T17:57:46.652Z,21.63
2018-03-04T18:00:22.017Z,19.83
2018-03-04T18:02:56.315Z,19.37
2018-03-04T18:05:30.105Z,17.40
2018-03-04T18:08:04.817Z,14.73
2018-03-04T18:10:40.085Z,19.83
2018-03-04T18:13:14.658Z,23.40
2018-03-04T18:15:49.349Z,23.83
2018-03-04T18:18:24.587Z,24.90
2018-03-04T18:20:59.218Z,20.10
2018-03-04T18:23:33.534Z,22.63
2018-03-04T18:26:08.098Z,23.33
2018-03-04T18:28:43.119Z,19.77
2018-03-04T18:31:17.030Z,23.63
2018-03-04T18:33:52.503Z,20.40
2018-03-04T18:36:27.140Z,21.60
2018-03-04T18:39:02.006Z,26.67
2018-03-04T18:41:36.247Z,24.90
2018-03-04T18:44:11.007Z,23.60
2018-03-04T18:46:45.190Z,23.07
2018-03-04T18:49:19.899Z,23.17
2018-03-04T18:51:54.863Z,21.93
2018-03-04T18:54:29.989Z,24.53
2018-03-04T18:57:04.319Z,25.73
2018-03-04T18:59:39.936Z,27.07
2018-03-04T19:02:14.101Z,22.73
2018-03-04T19:04:48.817Z,29.07
2018-03-04T19:07:23.170Z,29.37
2018-03-04T19:09:57.394Z,26.97
2018-03-04T19:12:31.828Z,25.70
2018-03-04T19:15:06.464Z,26.50
2018-03-04T19:17:41.514Z,27.97
2018-03-04T19:20:16.491Z,25.30
2018-03-04T19:22:51.620Z,30.50
2018-03-04T19:25:26.605Z,26.13
2018-03-04T19:28:01.831Z,27.40
2018-03-04T19:30:36.676Z,29.27
2018-03-04T19:33:10.968Z,31.23
2018-03-04T19:35:46.201Z,24.27
2018-03-04T19:38:21.443Z,26.80
2018-03-04T19:40:56.437Z,30.80
2018-03-04T19:43:30.790Z,26.33
2018-03-04T19:46:05.445Z,25.07
2018-03-04T19:48:39.685Z,31.00
2018-03-04T19:51:14.302Z,24.83
2018-03-04T19:53:48.588Z,20.53
2018-03-04T19:56:23.197Z,25.93
2018-03-04T19:58:58.234Z,37.50
2018-03-04T20:01:33.115Z,36.23
2018-03-04T20:04:07.346Z,33.73
2018-03-04T20:06:41.789Z,26.40
2018-03-04T20:09:16.146Z,30.43
2018-03-04T20:11:51.497Z,30.63
2018-03-04T20:14:26.104Z,32.57
2018-03-04T20:17:00.740Z,31.00
2018-03-04T20:19:35.005Z,32.30
2018-03-04T20:22:09.396Z,26.23
2018-03-04T20:24:44.559Z,33.63
2018-03-04T20:27:19.298Z,29.97
2018-03-04T20:29:54.810Z,29.43
2018-03-04T20:32:30.579Z,28.30
2018-03-04T20:35:04.873Z,28.93
2018-03-04T20:37:39.368Z,37.40
2018-03-04T20:40:13.547Z,28.57
2018-03-04T20:42:49.037Z,27.93
2018-03-04T20:45:23.447Z,30.70
2018-03-04T20:47:58.985Z,35.90
2018-03-04T20:50:35.093Z,29.10
2018-03-04T20:53:10.261Z,28.67
2018-03-04T20:55:44.721Z,31.50
2018-03-04T20:58:20.084Z,38.67
2018-03-04T21:00:54.639Z,34.20
2018-03-04T21:03:29.307Z,28.10
2018-03-04T21:06:04.513Z,32.20
2018-03-04T21:08:39.409Z,25.93
2018-03-04T21:11:14.538Z,28.77
2018-03-04T21:13:49.807Z,33.13
2018-03-04T21:16:24.234Z,30.03
2018-03-04T21:18:59.513Z,32.93
2018-03-04T21:21:34.284Z,30.73
2018-03-04T21:24:08.688Z,34.43
2018-03-04T21:26:44.216Z,34.70
2018-03-04T21:29:19.815Z,31.93
2018-03-04T21:31:55.150Z,31.93
2018-03-04T21:34:29.868Z,29.20
2018-03-04T21:37:03.923Z,41.13
2018-03-04T21:39:37.638Z,40.40
2018-03-04T21:42:11.848Z,41.63
2018-03-04T21:44:45.443Z,32.17
2018-03-04T21:47:18.659Z,43.10
2018-03-04T21:49:52.161Z,36.73
2018-03-04T21:52:25.741Z,35.70
2018-03-04T21:54:59.488Z,32.80
2018-03-04T21:57:32.527Z,30.70
2018-03-04T22:00:05.404Z,37.83
2018-03-04T22:02:38.538Z,37.37
2018-03-04T22:05:11.268Z,33.03
2018-03-04T22:07:43.661Z,34.20
2018-03-04T22:10:17.030Z,45.33
2018-03-04T22:12:50.205Z,32.33
2018-03-04T22:15:23.021Z,36.17
2018-03-04T22:17:55.458Z,36.80
2018-03-04T22:20:29.549Z,34.73
2018-03-04T22:23:02.129Z,27.90
2018-03-04T22:25:35.563Z,30.97
2018-03-04T22:28:09.538Z,31.60
2018-03-04T22:30:42.531Z,33.97
2018-03-04T22:33:14.955Z,34.77
2018-03-04T22:35:48.039Z,33.60
2018-03-04T22:38:20.931Z,31.17
2018-03-04T22:40:53.483Z,36.73
2018-03-04T22:43:25.801Z,29.67
2018-03-04T22:45:58.498Z,29.20
2018-03-04T22:48:31.698Z,30.40
2018-03-04T22:51:04.449Z,32.90
2018-03-04T22:53:36.854Z,31.63
2018-03-04T22:56:09.813Z,33.87
2018-03-04T22:58:43.745Z,30.80
2018-03-04T23:01:16.619Z,30.00
2018-03-04T23:03:49.262Z,28.53
2018-03-04T23:06:21.800Z,31.00
2018-03-04T23:08:55.189Z,29.57
2018-03-04T23:11:27.764Z,30.20
2018-03-04T23:14:00.224Z,30.20
2018-03-04T23:16:33.591Z,33.60
2018-03-04T23:19:06.150Z,34.63
2018-03-04T23:21:38.689Z,32.97
2018-03-04T23:24:12.105Z,28.20
2018-03-04T23:26:45.454Z,35.60
2018-03-04T23:29:18.809Z,30.90
2018-03-04T23:31:52.419Z,36.53
2018-03-04T23:34:25.167Z,31.07
2018-03-04T23:36:57.691Z,32.00
2018-03-04T23:39:30.763Z,32.23
2018-03-04T23:42:03.530Z,32.30
2018-03-04T23:44:36.125Z,32.70
2018-03-04T23:47:08.603Z,31.83
2018-03-04T23:49:41.258Z,29.00
2018-03-04T23:52:13.739Z,31.13
2018-03-04T23:54:46.073Z,30.70
2018-03-04T23:57:18.581Z,31.57
2018-03-04T23:59:51.903Z,31.00
